sensor_id;sensor_type;location;lat;lon;timestamp;temperature;humidity
38118;DHT22;23928;47.562;7.508;2023-04-23T00:01:25;11.90;99.90
38118;DHT22;23928;47.562;7.508;2023-04-23T00:03:56;11.90;99.90
38118;DHT22;23928;47.562;7.508;2023-04-23T00:06:22;12.00;99.90
38118;DHT22;23928;47.562;7.508;2023-04-23T00:08:52;12.00;99.90
38118;DHT22;23928;47.562;7.508;2023-04-23T00:11:19;12.10;99.90
38118;DHT22;23928;47.562;7.508;2023-04-23T00:13:45;11.90;99.90
38118;DHT22;23928;47.562;7.508;2023-04-23T00:16:13;11.90;99.90
38118;DHT22;23928;47.562;7.508;2023-04-23T00:18:40;11.80;99.90
38118;DHT22;23928;47.562;7.508;2023-04-23T00:21:05;11.90;99.90
38118;DHT22;23928;47.562;7.508;2023-04-23T00:23:33;11.80;99.90
38118;DHT22;23928;47.562;7.508;2023-04-23T00:25:58;11.80;99.90
38118;DHT22;23928;47.562;7.508;2023-04-23T00:28:24;11.80;99.90
38118;DHT22;23928;47.562;7.508;2023-04-23T00:30:50;11.90;99.90
38118;DHT22;23928;47.562;7.508;2023-04-23T00:33:15;11.80;99.90
38118;DHT22;23928;47.562;7.508;2023-04-23T00:35:41;11.80;99.90
38118;DHT22;23928;47.562;7.508;2023-04-23T00:38:07;11.80;99.90
38118;DHT22;23928;47.562;7.508;2023-04-23T00:40:32;11.80;99.90
38118;DHT22;23928;47.562;7.508;2023-04-23T00:42:58;11.70;99.90
38118;DHT22;23928;47.562;7.508;2023-04-23T00:45:24;11.80;99.90
38118;DHT22;23928;47.562;7.508;2023-04-23T00:47:50;11.80;99.90
38118;DHT22;23928;47.562;7.508;2023-04-23T00:50:16;11.80;99.90
38118;DHT22;23928;47.562;7.508;2023-04-23T00:52:42;11.90;99.90
38118;DHT22;23928;47.562;7.508;2023-04-23T00:55:08;11.80;99.90
38118;DHT22;23928;47.562;7.508;2023-04-23T00:57:37;11.70;99.90
38118;DHT22;23928;47.562;7.508;2023-04-23T01:00:04;11.70;99.90
38118;DHT22;23928;47.562;7.508;2023-04-23T01:02:32;11.70;99.90
38118;DHT22;23928;47.562;7.508;2023-04-23T01:04:59;11.70;99.90
38118;DHT22;23928;47.562;7.508;2023-04-23T01:07:26;11.60;99.90
38118;DHT22;23928;47.562;7.508;2023-04-23T01:09:52;11.60;99.90
38118;DHT22;23928;47.562;7.508;2023-04-23T01:12:18;11.70;99.90
38118;DHT22;23928;47.562;7.508;2023-04-23T01:14:44;11.50;99.90
38118;DHT22;23928;47.562;7.508;2023-04-23T01:17:10;11.60;99.90
38118;DHT22;23928;47.562;7.508;2023-04-23T01:19:37;11.60;99.90
38118;DHT22;23928;47.562;7.508;2023-04-23T01:22:13;11.60;99.90
38118;DHT22;23928;47.562;7.508;2023-04-23T01:24:39;11.60;99.90
38118;DHT22;23928;47.562;7.508;2023-04-23T01:27:07;11.60;99.90
38118;DHT22;23928;47.562;7.508;2023-04-23T01:29:33;11.70;99.90
38118;DHT22;23928;47.562;7.508;2023-04-23T01:31:59;11.60;99.90
38118;DHT22;23928;47.562;7.508;2023-04-23T01:34:25;11.50;99.90
38118;DHT22;23928;47.562;7.508;2023-04-23T01:36:51;11.50;99.90
38118;DHT22;23928;47.562;7.508;2023-04-23T01:39:19;11.30;99.90
38118;DHT22;23928;47.562;7.508;2023-04-23T01:41:45;11.40;99.90
38118;DHT22;23928;47.562;7.508;2023-04-23T01:44:11;11.40;99.90
38118;DHT22;23928;47.562;7.508;2023-04-23T01:46:37;11.30;99.90
38118;DHT22;23928;47.562;7.508;2023-04-23T01:49:03;11.40;99.90
38118;DHT22;23928;47.562;7.508;2023-04-23T01:51:29;11.40;99.90
38118;DHT22;23928;47.562;7.508;2023-04-23T01:53:55;11.50;99.90
38118;DHT22;23928;47.562;7.508;2023-04-23T01:56:24;11.40;99.90
38118;DHT22;23928;47.562;7.508;2023-04-23T01:58:51;11.40;99.90
38118;DHT22;23928;47.562;7.508;2023-04-23T02:01:17;11.40;99.90
38118;DHT22;23928;47.562;7.508;2023-04-23T02:03:43;11.30;99.90
38118;DHT22;23928;47.562;7.508;2023-04-23T02:06:09;11.30;99.90
38118;DHT22;23928;47.562;7.508;2023-04-23T02:08:35;11.40;99.90
38118;DHT22;23928;47.562;7.508;2023-04-23T02:11:01;11.30;99.90
38118;DHT22;23928;47.562;7.508;2023-04-23T02:13:27;11.30;99.90
38118;DHT22;23928;47.562;7.508;2023-04-23T02:15:52;11.40;99.90
38118;DHT22;23928;47.562;7.508;2023-04-23T02:18:18;11.30;99.90
38118;DHT22;23928;47.562;7.508;2023-04-23T02:20:44;11.20;99.90
38118;DHT22;23928;47.562;7.508;2023-04-23T02:23:09;11.20;99.90
38118;DHT22;23928;47.562;7.508;2023-04-23T02:25:35;11.20;99.90
38118;DHT22;23928;47.562;7.508;2023-04-23T02:28:04;11.20;99.90
38118;DHT22;23928;47.562;7.508;2023-04-23T02:30:32;11.20;99.90
38118;DHT22;23928;47.562;7.508;2023-04-23T02:32:57;11.10;99.90
38118;DHT22;23928;47.562;7.508;2023-04-23T02:35:23;11.20;99.90
38118;DHT22;23928;47.562;7.508;2023-04-23T02:37:49;11.40;99.90
38118;DHT22;23928;47.562;7.508;2023-04-23T02:40:15;11.20;99.90
38118;DHT22;23928;47.562;7.508;2023-04-23T02:42:40;11.30;99.90
38118;DHT22;23928;47.562;7.508;2023-04-23T02:45:07;11.30;99.90
38118;DHT22;23928;47.562;7.508;2023-04-23T02:47:33;11.30;99.90
38118;DHT22;23928;47.562;7.508;2023-04-23T02:49:58;11.30;99.90
38118;DHT22;23928;47.562;7.508;2023-04-23T02:52:27;11.30;99.90
38118;DHT22;23928;47.562;7.508;2023-04-23T02:54:53;11.30;99.90
38118;DHT22;23928;47.562;7.508;2023-04-23T02:57:18;11.30;99.90
38118;DHT22;23928;47.562;7.508;2023-04-23T02:59:44;11.20;99.90
38118;DHT22;23928;47.562;7.508;2023-04-23T03:02:10;11.20;99.90
38118;DHT22;23928;47.562;7.508;2023-04-23T03:04:36;11.20;99.90
38118;DHT22;23928;47.562;7.508;2023-04-23T03:07:02;11.20;99.90
38118;DHT22;23928;47.562;7.508;2023-04-23T03:09:27;11.20;99.90
38118;DHT22;23928;47.562;7.508;2023-04-23T03:11:53;11.10;99.90
38118;DHT22;23928;47.562;7.508;2023-04-23T03:14:18;11.10;99.90
38118;DHT22;23928;47.562;7.508;2023-04-23T03:16:44;11.10;99.90
38118;DHT22;23928;47.562;7.508;2023-04-23T03:19:10;11.10;99.90
38118;DHT22;23928;47.562;7.508;2023-04-23T03:21:35;11.10;99.90
38118;DHT22;23928;47.562;7.508;2023-04-23T03:24:01;11.00;99.90
38118;DHT22;23928;47.562;7.508;2023-04-23T03:26:26;11.10;99.90
38118;DHT22;23928;47.562;7.508;2023-04-23T03:28:52;11.10;99.90
38118;DHT22;23928;47.562;7.508;2023-04-23T03:31:17;11.10;99.90
38118;DHT22;23928;47.562;7.508;2023-04-23T03:33:43;11.20;99.90
38118;DHT22;23928;47.562;7.508;2023-04-23T03:36:09;11.10;99.90
38118;DHT22;23928;47.562;7.508;2023-04-23T03:38:34;11.20;99.90
38118;DHT22;23928;47.562;7.508;2023-04-23T03:41:00;11.10;99.90
38118;DHT22;23928;47.562;7.508;2023-04-23T03:43:25;11.10;99.90
38118;DHT22;23928;47.562;7.508;2023-04-23T03:45:51;11.10;99.90
38118;DHT22;23928;47.562;7.508;2023-04-23T03:48:17;11.10;99.90
38118;DHT22;23928;47.562;7.508;2023-04-23T03:50:42;11.10;99.90
38118;DHT22;23928;47.562;7.508;2023-04-23T03:53:08;11.10;99.90
38118;DHT22;23928;47.562;7.508;2023-04-23T03:55:34;11.10;99.90
38118;DHT22;23928;47.562;7.508;2023-04-23T03:58:01;11.20;99.90
38118;DHT22;23928;47.562;7.508;2023-04-23T04:00:27;11.10;99.90
38118;DHT22;23928;47.562;7.508;2023-04-23T04:02:53;11.10;99.90
38118;DHT22;23928;47.562;7.508;2023-04-23T04:05:18;11.10;99.90
38118;DHT22;23928;47.562;7.508;2023-04-23T04:07:44;11.00;99.90
38118;DHT22;23928;47.562;7.508;2023-04-23T04:10:10;11.00;99.90
38118;DHT22;23928;47.562;7.508;2023-04-23T04:12:36;11.00;99.90
38118;DHT22;23928;47.562;7.508;2023-04-23T04:15:02;11.00;99.90
38118;DHT22;23928;47.562;7.508;2023-04-23T04:17:28;11.00;99.90
38118;DHT22;23928;47.562;7.508;2023-04-23T04:19:54;11.00;99.90
38118;DHT22;23928;47.562;7.508;2023-04-23T04:22:19;10.90;99.90
38118;DHT22;23928;47.562;7.508;2023-04-23T04:24:45;11.00;99.90
38118;DHT22;23928;47.562;7.508;2023-04-23T04:27:12;11.00;99.90
38118;DHT22;23928;47.562;7.508;2023-04-23T04:29:38;11.10;99.90
38118;DHT22;23928;47.562;7.508;2023-04-23T04:32:06;11.10;99.90
38118;DHT22;23928;47.562;7.508;2023-04-23T04:34:32;11.10;99.90
38118;DHT22;23928;47.562;7.508;2023-04-23T04:36:57;11.00;99.90
38118;DHT22;23928;47.562;7.508;2023-04-23T04:39:23;10.90;99.90
38118;DHT22;23928;47.562;7.508;2023-04-23T04:41:48;10.90;99.90
38118;DHT22;23928;47.562;7.508;2023-04-23T04:44:14;11.00;99.90
38118;DHT22;23928;47.562;7.508;2023-04-23T04:46:40;10.90;99.90
38118;DHT22;23928;47.562;7.508;2023-04-23T04:49:08;11.00;99.90
38118;DHT22;23928;47.562;7.508;2023-04-23T04:51:35;11.10;99.90
38118;DHT22;23928;47.562;7.508;2023-04-23T04:54:01;11.00;99.90
38118;DHT22;23928;47.562;7.508;2023-04-23T04:56:26;11.00;99.90
38118;DHT22;23928;47.562;7.508;2023-04-23T04:58:52;11.00;99.90
38118;DHT22;23928;47.562;7.508;2023-04-23T05:01:19;11.00;99.90
38118;DHT22;23928;47.562;7.508;2023-04-23T05:03:45;11.00;99.90
38118;DHT22;23928;47.562;7.508;2023-04-23T05:06:11;11.10;99.90
38118;DHT22;23928;47.562;7.508;2023-04-23T05:08:36;10.90;99.90
38118;DHT22;23928;47.562;7.508;2023-04-23T05:11:02;10.90;99.90
38118;DHT22;23928;47.562;7.508;2023-04-23T05:13:28;10.90;99.90
38118;DHT22;23928;47.562;7.508;2023-04-23T05:15:54;11.00;99.90
38118;DHT22;23928;47.562;7.508;2023-04-23T05:18:19;11.10;99.90
38118;DHT22;23928;47.562;7.508;2023-04-23T05:20:45;11.10;99.90
38118;DHT22;23928;47.562;7.508;2023-04-23T05:23:11;11.20;99.90
38118;DHT22;23928;47.562;7.508;2023-04-23T05:25:37;11.10;99.90
38118;DHT22;23928;47.562;7.508;2023-04-23T05:28:02;11.20;99.90
38118;DHT22;23928;47.562;7.508;2023-04-23T05:30:28;11.20;99.90
38118;DHT22;23928;47.562;7.508;2023-04-23T05:32:54;11.20;99.90
38118;DHT22;23928;47.562;7.508;2023-04-23T05:35:20;11.30;99.90
38118;DHT22;23928;47.562;7.508;2023-04-23T05:37:46;11.30;99.90
38118;DHT22;23928;47.562;7.508;2023-04-23T05:40:11;11.40;99.90
38118;DHT22;23928;47.562;7.508;2023-04-23T05:42:37;11.60;99.90
38118;DHT22;23928;47.562;7.508;2023-04-23T05:45:03;11.60;99.90
38118;DHT22;23928;47.562;7.508;2023-04-23T05:47:29;11.60;99.90
38118;DHT22;23928;47.562;7.508;2023-04-23T05:49:55;11.70;99.90
38118;DHT22;23928;47.562;7.508;2023-04-23T05:52:24;11.70;99.90
38118;DHT22;23928;47.562;7.508;2023-04-23T05:54:50;11.80;99.90
38118;DHT22;23928;47.562;7.508;2023-04-23T05:57:16;11.80;99.90
38118;DHT22;23928;47.562;7.508;2023-04-23T05:59:41;11.90;99.90
38118;DHT22;23928;47.562;7.508;2023-04-23T06:02:08;11.90;99.90
38118;DHT22;23928;47.562;7.508;2023-04-23T06:04:35;11.90;99.90
38118;DHT22;23928;47.562;7.508;2023-04-23T06:07:01;11.90;99.90
38118;DHT22;23928;47.562;7.508;2023-04-23T06:09:26;12.00;99.90
38118;DHT22;23928;47.562;7.508;2023-04-23T06:11:52;12.10;99.90
38118;DHT22;23928;47.562;7.508;2023-04-23T06:14:18;12.20;99.90
38118;DHT22;23928;47.562;7.508;2023-04-23T06:16:44;12.10;99.90
38118;DHT22;23928;47.562;7.508;2023-04-23T06:19:09;12.10;99.90
38118;DHT22;23928;47.562;7.508;2023-04-23T06:21:35;12.00;99.90
38118;DHT22;23928;47.562;7.508;2023-04-23T06:24:01;12.10;99.90
38118;DHT22;23928;47.562;7.508;2023-04-23T06:26:27;12.20;99.90
38118;DHT22;23928;47.562;7.508;2023-04-23T06:28:52;12.30;99.90
38118;DHT22;23928;47.562;7.508;2023-04-23T06:31:18;12.30;99.90
38118;DHT22;23928;47.562;7.508;2023-04-23T06:33:44;12.30;99.90
38118;DHT22;23928;47.562;7.508;2023-04-23T06:36:10;12.10;99.90
38118;DHT22;23928;47.562;7.508;2023-04-23T06:38:36;12.20;99.90
38118;DHT22;23928;47.562;7.508;2023-04-23T06:41:02;12.30;99.90
38118;DHT22;23928;47.562;7.508;2023-04-23T06:43:28;12.40;99.90
38118;DHT22;23928;47.562;7.508;2023-04-23T06:45:54;12.40;99.90
38118;DHT22;23928;47.562;7.508;2023-04-23T06:48:20;12.40;99.90
38118;DHT22;23928;47.562;7.508;2023-04-23T06:50:46;12.30;99.90
38118;DHT22;23928;47.562;7.508;2023-04-23T06:53:13;12.30;99.90
38118;DHT22;23928;47.562;7.508;2023-04-23T06:55:38;12.50;99.90
38118;DHT22;23928;47.562;7.508;2023-04-23T06:58:04;12.50;99.90
38118;DHT22;23928;47.562;7.508;2023-04-23T07:00:31;12.70;99.90
38118;DHT22;23928;47.562;7.508;2023-04-23T07:02:57;12.80;99.90
38118;DHT22;23928;47.562;7.508;2023-04-23T07:05:23;12.70;99.90
38118;DHT22;23928;47.562;7.508;2023-04-23T07:07:49;12.90;99.90
38118;DHT22;23928;47.562;7.508;2023-04-23T07:10:14;12.90;99.90
38118;DHT22;23928;47.562;7.508;2023-04-23T07:12:40;12.80;99.90
38118;DHT22;23928;47.562;7.508;2023-04-23T07:15:06;12.90;99.90
38118;DHT22;23928;47.562;7.508;2023-04-23T07:17:33;13.10;99.90
38118;DHT22;23928;47.562;7.508;2023-04-23T07:19:59;13.20;99.90
38118;DHT22;23928;47.562;7.508;2023-04-23T07:22:25;13.40;99.90
38118;DHT22;23928;47.562;7.508;2023-04-23T07:24:51;13.60;99.90
38118;DHT22;23928;47.562;7.508;2023-04-23T07:27:17;13.50;99.90
38118;DHT22;23928;47.562;7.508;2023-04-23T07:29:43;13.70;99.90
38118;DHT22;23928;47.562;7.508;2023-04-23T07:32:08;13.80;99.90
38118;DHT22;23928;47.562;7.508;2023-04-23T07:34:34;13.80;99.90
38118;DHT22;23928;47.562;7.508;2023-04-23T07:37:01;13.90;99.90
38118;DHT22;23928;47.562;7.508;2023-04-23T07:39:27;13.90;99.90
38118;DHT22;23928;47.562;7.508;2023-04-23T07:41:52;14.00;99.90
38118;DHT22;23928;47.562;7.508;2023-04-23T07:44:18;14.30;99.90
38118;DHT22;23928;47.562;7.508;2023-04-23T07:46:44;14.40;99.90
38118;DHT22;23928;47.562;7.508;2023-04-23T07:49:09;14.40;99.90
38118;DHT22;23928;47.562;7.508;2023-04-23T07:51:35;14.40;99.90
38118;DHT22;23928;47.562;7.508;2023-04-23T07:54:00;14.40;99.90
38118;DHT22;23928;47.562;7.508;2023-04-23T07:56:26;14.60;99.90
38118;DHT22;23928;47.562;7.508;2023-04-23T07:58:52;14.70;99.90
38118;DHT22;23928;47.562;7.508;2023-04-23T08:01:22;14.90;99.90
38118;DHT22;23928;47.562;7.508;2023-04-23T08:03:48;15.00;99.90
38118;DHT22;23928;47.562;7.508;2023-04-23T08:06:13;15.10;99.90
38118;DHT22;23928;47.562;7.508;2023-04-23T08:08:39;15.20;99.90
38118;DHT22;23928;47.562;7.508;2023-04-23T08:11:05;15.20;99.90
38118;DHT22;23928;47.562;7.508;2023-04-23T08:13:31;15.20;99.90
38118;DHT22;23928;47.562;7.508;2023-04-23T08:15:57;15.10;99.90
38118;DHT22;23928;47.562;7.508;2023-04-23T08:18:22;15.00;99.90
38118;DHT22;23928;47.562;7.508;2023-04-23T08:20:48;14.80;99.90
38118;DHT22;23928;47.562;7.508;2023-04-23T08:23:14;15.00;99.90
38118;DHT22;23928;47.562;7.508;2023-04-23T08:25:39;15.40;99.90
38118;DHT22;23928;47.562;7.508;2023-04-23T08:28:05;15.70;99.90
38118;DHT22;23928;47.562;7.508;2023-04-23T08:30:31;15.80;99.90
38118;DHT22;23928;47.562;7.508;2023-04-23T08:32:56;16.20;99.90
38118;DHT22;23928;47.562;7.508;2023-04-23T08:35:23;16.20;99.90
38118;DHT22;23928;47.562;7.508;2023-04-23T08:37:48;15.70;99.90
38118;DHT22;23928;47.562;7.508;2023-04-23T08:40:14;15.70;99.90
38118;DHT22;23928;47.562;7.508;2023-04-23T08:42:53;15.50;99.90
38118;DHT22;23928;47.562;7.508;2023-04-23T08:45:22;15.40;99.90
38118;DHT22;23928;47.562;7.508;2023-04-23T08:47:47;15.50;99.90
38118;DHT22;23928;47.562;7.508;2023-04-23T08:50:14;15.80;99.90
38118;DHT22;23928;47.562;7.508;2023-04-23T08:52:52;15.70;99.90
38118;DHT22;23928;47.562;7.508;2023-04-23T08:55:20;16.00;99.90
38118;DHT22;23928;47.562;7.508;2023-04-23T08:57:46;16.20;99.90
38118;DHT22;23928;47.562;7.508;2023-04-23T09:00:13;16.00;99.90
38118;DHT22;23928;47.562;7.508;2023-04-23T09:02:44;16.10;99.90
38118;DHT22;23928;47.562;7.508;2023-04-23T09:05:10;16.30;99.90
38118;DHT22;23928;47.562;7.508;2023-04-23T09:07:36;16.00;99.90
38118;DHT22;23928;47.562;7.508;2023-04-23T09:10:03;15.90;99.90
38118;DHT22;23928;47.562;7.508;2023-04-23T09:12:30;16.10;99.90
38118;DHT22;23928;47.562;7.508;2023-04-23T09:14:56;16.50;99.90
38118;DHT22;23928;47.562;7.508;2023-04-23T09:17:22;16.70;99.90
38118;DHT22;23928;47.562;7.508;2023-04-23T09:19:53;16.70;99.90
38118;DHT22;23928;47.562;7.508;2023-04-23T09:25:03;16.80;99.90
38118;DHT22;23928;47.562;7.508;2023-04-23T09:27:30;16.90;99.90
38118;DHT22;23928;47.562;7.508;2023-04-23T09:29:56;16.90;99.90
38118;DHT22;23928;47.562;7.508;2023-04-23T09:32:30;16.90;99.90
38118;DHT22;23928;47.562;7.508;2023-04-23T09:34:57;16.50;99.90
38118;DHT22;23928;47.562;7.508;2023-04-23T09:37:24;16.40;99.90
38118;DHT22;23928;47.562;7.508;2023-04-23T09:39:51;16.60;99.90
38118;DHT22;23928;47.562;7.508;2023-04-23T09:42:22;16.90;99.90
38118;DHT22;23928;47.562;7.508;2023-04-23T09:45:02;17.00;99.90
38118;DHT22;23928;47.562;7.508;2023-04-23T09:47:31;16.90;99.90
38118;DHT22;23928;47.562;7.508;2023-04-23T09:49:58;16.90;99.90
38118;DHT22;23928;47.562;7.508;2023-04-23T09:52:23;17.10;99.90
38118;DHT22;23928;47.562;7.508;2023-04-23T09:54:49;17.40;99.90
38118;DHT22;23928;47.562;7.508;2023-04-23T09:57:15;17.50;99.90
38118;DHT22;23928;47.562;7.508;2023-04-23T09:59:41;17.70;99.90
38118;DHT22;23928;47.562;7.508;2023-04-23T10:02:07;17.50;99.90
38118;DHT22;23928;47.562;7.508;2023-04-23T10:04:34;17.50;99.90
38118;DHT22;23928;47.562;7.508;2023-04-23T10:07:02;17.40;99.90
38118;DHT22;23928;47.562;7.508;2023-04-23T10:09:29;17.40;99.90
38118;DHT22;23928;47.562;7.508;2023-04-23T10:11:59;17.50;99.90
38118;DHT22;23928;47.562;7.508;2023-04-23T10:14:27;17.70;99.90
38118;DHT22;23928;47.562;7.508;2023-04-23T10:17:01;17.40;99.90
38118;DHT22;23928;47.562;7.508;2023-04-23T10:19:27;17.60;99.90
38118;DHT22;23928;47.562;7.508;2023-04-23T10:21:58;18.00;99.90
38118;DHT22;23928;47.562;7.508;2023-04-23T10:24:32;17.80;99.90
38118;DHT22;23928;47.562;7.508;2023-04-23T10:27:01;18.00;99.90
38118;DHT22;23928;47.562;7.508;2023-04-23T10:29:36;17.80;99.90
38118;DHT22;23928;47.562;7.508;2023-04-23T10:32:03;17.80;99.90
38118;DHT22;23928;47.562;7.508;2023-04-23T10:34:30;17.80;99.90
38118;DHT22;23928;47.562;7.508;2023-04-23T10:36:59;18.10;99.90
38118;DHT22;23928;47.562;7.508;2023-04-23T10:39:31;18.00;99.90
38118;DHT22;23928;47.562;7.508;2023-04-23T10:41:58;18.40;99.90
38118;DHT22;23928;47.562;7.508;2023-04-23T10:44:37;18.10;99.90
38118;DHT22;23928;47.562;7.508;2023-04-23T10:47:04;18.40;99.90
38118;DHT22;23928;47.562;7.508;2023-04-23T10:49:32;18.40;99.90
38118;DHT22;23928;47.562;7.508;2023-04-23T10:52:02;18.60;99.90
38118;DHT22;23928;47.562;7.508;2023-04-23T10:54:32;18.70;99.90
38118;DHT22;23928;47.562;7.508;2023-04-23T10:57:00;18.50;99.90
38118;DHT22;23928;47.562;7.508;2023-04-23T10:59:31;18.40;99.90
38118;DHT22;23928;47.562;7.508;2023-04-23T11:02:04;18.60;99.90
38118;DHT22;23928;47.562;7.508;2023-04-23T11:04:30;18.80;99.90
38118;DHT22;23928;47.562;7.508;2023-04-23T11:07:07;18.80;99.90
38118;DHT22;23928;47.562;7.508;2023-04-23T11:14:53;18.10;99.90
38118;DHT22;23928;47.562;7.508;2023-04-23T11:20:11;18.10;99.90
38118;DHT22;23928;47.562;7.508;2023-04-23T11:22:50;18.30;99.90
38118;DHT22;23928;47.562;7.508;2023-04-23T11:25:24;18.50;99.90
38118;DHT22;23928;47.562;7.508;2023-04-23T11:27:52;18.50;99.90
38118;DHT22;23928;47.562;7.508;2023-04-23T11:30:21;18.80;99.90
38118;DHT22;23928;47.562;7.508;2023-04-23T11:32:48;18.90;99.90
38118;DHT22;23928;47.562;7.508;2023-04-23T11:35:19;18.60;99.90
38118;DHT22;23928;47.562;7.508;2023-04-23T11:37:46;18.70;99.90
38118;DHT22;23928;47.562;7.508;2023-04-23T11:40:16;18.90;99.90
38118;DHT22;23928;47.562;7.508;2023-04-23T11:42:52;18.60;99.90
38118;DHT22;23928;47.562;7.508;2023-04-23T11:45:20;18.60;99.90
38118;DHT22;23928;47.562;7.508;2023-04-23T11:47:48;18.60;99.90
38118;DHT22;23928;47.562;7.508;2023-04-23T11:50:19;18.60;99.90
38118;DHT22;23928;47.562;7.508;2023-04-23T11:52:45;18.80;99.90
38118;DHT22;23928;47.562;7.508;2023-04-23T11:55:11;19.40;99.90
38118;DHT22;23928;47.562;7.508;2023-04-23T11:57:47;19.50;99.90
38118;DHT22;23928;47.562;7.508;2023-04-23T12:00:17;19.30;99.90
38118;DHT22;23928;47.562;7.508;2023-04-23T12:03:00;19.40;99.90
38118;DHT22;23928;47.562;7.508;2023-04-23T12:08:16;18.70;99.90
38118;DHT22;23928;47.562;7.508;2023-04-23T12:13:14;18.30;99.90
38118;DHT22;23928;47.562;7.508;2023-04-23T12:15:46;18.20;99.90
38118;DHT22;23928;47.562;7.508;2023-04-23T12:18:12;18.00;99.90
38118;DHT22;23928;47.562;7.508;2023-04-23T12:20:37;18.00;99.90
38118;DHT22;23928;47.562;7.508;2023-04-23T12:23:05;17.90;99.90
38118;DHT22;23928;47.562;7.508;2023-04-23T12:25:34;18.10;99.90
38118;DHT22;23928;47.562;7.508;2023-04-23T12:28:00;18.40;99.90
38118;DHT22;23928;47.562;7.508;2023-04-23T12:30:31;19.00;99.90
38118;DHT22;23928;47.562;7.508;2023-04-23T12:33:01;19.00;99.90
38118;DHT22;23928;47.562;7.508;2023-04-23T12:35:42;18.50;99.90
38118;DHT22;23928;47.562;7.508;2023-04-23T12:38:27;18.40;99.90
38118;DHT22;23928;47.562;7.508;2023-04-23T12:40:55;18.80;99.90
38118;DHT22;23928;47.562;7.508;2023-04-23T12:43:22;19.10;99.90
38118;DHT22;23928;47.562;7.508;2023-04-23T12:45:48;18.80;99.90
38118;DHT22;23928;47.562;7.508;2023-04-23T12:48:14;19.00;99.90
38118;DHT22;23928;47.562;7.508;2023-04-23T12:50:40;19.20;99.90
38118;DHT22;23928;47.562;7.508;2023-04-23T12:53:06;19.20;99.90
38118;DHT22;23928;47.562;7.508;2023-04-23T12:55:32;19.10;99.90
38118;DHT22;23928;47.562;7.508;2023-04-23T12:57:58;18.90;99.90
38118;DHT22;23928;47.562;7.508;2023-04-23T13:00:24;18.80;99.90
38118;DHT22;23928;47.562;7.508;2023-04-23T13:02:50;19.20;99.90
38118;DHT22;23928;47.562;7.508;2023-04-23T13:05:16;19.00;99.90
38118;DHT22;23928;47.562;7.508;2023-04-23T13:07:41;18.60;99.90
38118;DHT22;23928;47.562;7.508;2023-04-23T13:10:08;18.70;99.90
38118;DHT22;23928;47.562;7.508;2023-04-23T13:12:34;18.60;99.90
38118;DHT22;23928;47.562;7.508;2023-04-23T13:15:00;18.50;99.90
38118;DHT22;23928;47.562;7.508;2023-04-23T13:17:26;18.50;99.90
38118;DHT22;23928;47.562;7.508;2023-04-23T13:19:53;18.10;99.90
38118;DHT22;23928;47.562;7.508;2023-04-23T13:22:20;17.80;99.90
38118;DHT22;23928;47.562;7.508;2023-04-23T13:24:46;16.50;99.90
38118;DHT22;23928;47.562;7.508;2023-04-23T13:27:12;16.30;99.90
38118;DHT22;23928;47.562;7.508;2023-04-23T13:29:37;16.40;99.90
38118;DHT22;23928;47.562;7.508;2023-04-23T13:32:04;16.50;99.90
38118;DHT22;23928;47.562;7.508;2023-04-23T13:34:30;17.10;99.90
38118;DHT22;23928;47.562;7.508;2023-04-23T13:36:56;17.50;99.90
38118;DHT22;23928;47.562;7.508;2023-04-23T13:39:22;17.90;99.90
38118;DHT22;23928;47.562;7.508;2023-04-23T13:41:48;18.20;99.90
38118;DHT22;23928;47.562;7.508;2023-04-23T13:44:14;18.70;99.90
38118;DHT22;23928;47.562;7.508;2023-04-23T13:46:41;18.70;99.90
38118;DHT22;23928;47.562;7.508;2023-04-23T13:49:06;18.30;99.90
38118;DHT22;23928;47.562;7.508;2023-04-23T13:51:32;18.60;99.90
38118;DHT22;23928;47.562;7.508;2023-04-23T13:53:57;18.90;99.90
38118;DHT22;23928;47.562;7.508;2023-04-23T13:56:24;18.70;99.90
38118;DHT22;23928;47.562;7.508;2023-04-23T13:58:49;18.50;99.90
38118;DHT22;23928;47.562;7.508;2023-04-23T14:01:17;18.50;99.90
38118;DHT22;23928;47.562;7.508;2023-04-23T14:03:43;18.30;99.90
38118;DHT22;23928;47.562;7.508;2023-04-23T14:06:09;18.50;99.90
38118;DHT22;23928;47.562;7.508;2023-04-23T14:08:35;18.50;99.90
38118;DHT22;23928;47.562;7.508;2023-04-23T14:11:02;18.20;99.90
38118;DHT22;23928;47.562;7.508;2023-04-23T14:13:29;18.50;99.90
38118;DHT22;23928;47.562;7.508;2023-04-23T14:15:55;18.20;99.90
38118;DHT22;23928;47.562;7.508;2023-04-23T14:18:21;18.60;99.90
38118;DHT22;23928;47.562;7.508;2023-04-23T14:20:47;18.90;99.90
38118;DHT22;23928;47.562;7.508;2023-04-23T14:25:47;19.10;99.90
38118;DHT22;23928;47.562;7.508;2023-04-23T14:30:47;19.50;99.90
38118;DHT22;23928;47.562;7.508;2023-04-23T14:33:13;19.60;99.90
38118;DHT22;23928;47.562;7.508;2023-04-23T14:35:38;19.40;99.90
38118;DHT22;23928;47.562;7.508;2023-04-23T14:38:04;19.40;99.90
38118;DHT22;23928;47.562;7.508;2023-04-23T14:40:30;19.10;99.90
38118;DHT22;23928;47.562;7.508;2023-04-23T14:42:55;18.90;99.90
38118;DHT22;23928;47.562;7.508;2023-04-23T14:45:21;18.50;99.90
38118;DHT22;23928;47.562;7.508;2023-04-23T14:47:46;18.20;99.90
38118;DHT22;23928;47.562;7.508;2023-04-23T14:50:14;18.00;99.90
38118;DHT22;23928;47.562;7.508;2023-04-23T14:52:40;17.90;99.90
38118;DHT22;23928;47.562;7.508;2023-04-23T14:55:06;17.60;99.90
38118;DHT22;23928;47.562;7.508;2023-04-23T14:57:32;17.60;99.90
38118;DHT22;23928;47.562;7.508;2023-04-23T14:59:57;17.50;99.90
38118;DHT22;23928;47.562;7.508;2023-04-23T15:02:23;17.50;99.90
38118;DHT22;23928;47.562;7.508;2023-04-23T15:04:49;17.40;99.90
38118;DHT22;23928;47.562;7.508;2023-04-23T15:07:15;17.40;99.90
38118;DHT22;23928;47.562;7.508;2023-04-23T15:09:40;17.40;99.90
38118;DHT22;23928;47.562;7.508;2023-04-23T15:12:42;17.50;99.90
38118;DHT22;23928;47.562;7.508;2023-04-23T15:17:48;17.50;99.90
38118;DHT22;23928;47.562;7.508;2023-04-23T15:20:14;17.40;99.90
38118;DHT22;23928;47.562;7.508;2023-04-23T15:22:41;17.30;99.90
38118;DHT22;23928;47.562;7.508;2023-04-23T15:25:07;17.20;99.90
38118;DHT22;23928;47.562;7.508;2023-04-23T15:27:32;17.20;99.90
38118;DHT22;23928;47.562;7.508;2023-04-23T15:29:58;17.20;99.90
38118;DHT22;23928;47.562;7.508;2023-04-23T15:32:23;17.10;99.90
38118;DHT22;23928;47.562;7.508;2023-04-23T15:34:49;17.10;99.90
38118;DHT22;23928;47.562;7.508;2023-04-23T15:37:14;16.90;99.90
38118;DHT22;23928;47.562;7.508;2023-04-23T15:39:40;17.00;99.90
38118;DHT22;23928;47.562;7.508;2023-04-23T15:42:06;17.00;99.90
38118;DHT22;23928;47.562;7.508;2023-04-23T15:44:32;16.90;99.90
38118;DHT22;23928;47.562;7.508;2023-04-23T15:46:57;17.00;99.90
38118;DHT22;23928;47.562;7.508;2023-04-23T15:49:26;17.00;99.90
38118;DHT22;23928;47.562;7.508;2023-04-23T15:51:51;17.10;99.90